Main page
METAR-TAF:

METAR-TAF

Airports :

Melilla Airport

Melilla, Spain

latitude: 35-17N, longitude: 002-57W, elevation: 47 m

Current weather observation

The report was made 24 minutes ago, at 15:30 UTC
Wind 11 kt from the East/Northeast, varying between North/Northeast and East
Temperature 16°C
Humidity 72%
Pressure 1016 hPa
Visibility 10 km or more
Scattered clouds at a height of 1800 ft

METAR: GEML 281530Z 07011KT 030V100 9999 SCT018 16/11 Q1016

Time: 16:54 (15:54 UTC)

Forecast

The report was made 1 hour and 54 minutes ago, at 14:00 UTC
Forecast valid from 28 at 15 UTC to 29 at 15 UTC
Wind 10 kt from the East
Visibility 10 km or more
Scattered clouds at a height of 1500 ft
Scattered clouds at a height of 2000 ft
Becoming
from 28 at 23 UTC to 29 at 01 UTC
Wind 3 kt from variable directions

TAF: GEML 281400Z 2815/2915 08010KT 9999 SCT015 SCT020 TX17/2914Z TN12/2906Z BECMG 2823/2901 VRB03KT

Weather observations and forecasts of more than 4000 airports (METAR and TAF reports).

The available stations are represented by yellow and red dots on the map.

Hover mouse over dot to see the name of the station.

Then click to see weather observations and forecasts.

To change the map : click on the green buttons with a black cross to zoom in, on the green button with a dash to zoom out, or on the green arrows for adjacent maps.


METAR-TAF: